Taiki Maru — JI3464 — position and weather

sailwx.info

Track history (hours):
 
Tides and Currents Weather Stations Pressure Air Temp Water Temp Dewpoint Dewpoint Depression Visibility Wind Speed Wind Dir Waves Ship Positions

Taiki Maru

Last reported at 2014-Sep-16 09:30 UTC. Time now 2014-Sep-16 17:36 UTC.
Position N 33°41' E 129°56'.

Length 93 m; draft 5.2 m.

Type: Cargo ship. MMSI: 431300622.

Date/timePositionNaut miles runAvg speedWind from/ knotsBaromVisibWave heightAir tempDewpointWater temp
2014-Sep-16 09:30N 33°41' E 129°56'1712.5
2014-Sep-16 08:10N 33°51' E 130°12'  
2014-Sep-13 06:04N 35°03' E 139°37'714.3
2014-Sep-13 05:33N 35°08' E 139°44'1211.8
2014-Sep-13 04:33N 35°20' E 139°43'9 9.1
2014-Sep-13 03:31N 35°29' E 139°40'0 0.0
2014-Sep-13 02:31N 35°29' E 139°40'0 0.0
2014-Sep-13 01:31N 35°29' E 139°40'0 0.0
2014-Sep-13 00:31N 35°29' E 139°40'0 0.1
2014-Sep-12 23:33N 35°29' E 139°40'4 3.6
2014-Sep-12 22:33N 35°25' E 139°42'1 0.6
2014-Sep-12 21:32N 35°26' E 139°41'0 0.0
2014-Sep-12 20:32N 35°26' E 139°41'0 0.0
2014-Sep-12 19:32N 35°26' E 139°41'0 0.0
2014-Sep-12 18:32N 35°26' E 139°41'0 0.0
2014-Sep-12 17:32N 35°26' E 139°41'0 0.0
2014-Sep-12 16:32N 35°26' E 139°41'0 0.0
2014-Sep-12 15:32N 35°26' E 139°41'0 0.0
2014-Sep-12 14:32N 35°26' E 139°41'0 0.0
2014-Sep-12 13:32N 35°26' E 139°41'0 0.0
2014-Sep-12 12:32N 35°26' E 139°41'0 0.0
2014-Sep-12 11:33N 35°26' E 139°41'0 0.1
2014-Sep-12 10:33N 35°26' E 139°41'8 7.9
2014-Sep-12 09:33N 35°18' E 139°44'1111.4
2014-Sep-12 08:33N 35°07' E 139°45'434 9.0
2014-Sep-10 08:33N 32°06' E 131°51'  
Track history (hours):
 
Tides and Currents Weather Stations Pressure Air Temp Water Temp Dewpoint Dewpoint Depression Visibility Wind Speed Wind Dir Waves Ship Positions

Taiki Maru

Last reported at 2014-Sep-16 09:30 UTC. Time now 2014-Sep-16 17:36 UTC.
Position N 33°41' E 129°56'.

Length 93 m; draft 5.2 m.

Type: Cargo ship. MMSI: 431300622.

Date/timePositionNaut miles runAvg speedWind from/ knotsBaromVisibWave heightAir tempDewpointWater temp
2014-Sep-16 09:30N 33°41' E 129°56'1712.5
2014-Sep-16 08:10N 33°51' E 130°12'  
2014-Sep-13 06:04N 35°03' E 139°37'714.3
2014-Sep-13 05:33N 35°08' E 139°44'1211.8
2014-Sep-13 04:33N 35°20' E 139°43'9 9.1
2014-Sep-13 03:31N 35°29' E 139°40'0 0.0
2014-Sep-13 02:31N 35°29' E 139°40'0 0.0
2014-Sep-13 01:31N 35°29' E 139°40'0 0.0
2014-Sep-13 00:31N 35°29' E 139°40'0 0.1
2014-Sep-12 23:33N 35°29' E 139°40'4 3.6
2014-Sep-12 22:33N 35°25' E 139°42'1 0.6
2014-Sep-12 21:32N 35°26' E 139°41'0 0.0
2014-Sep-12 20:32N 35°26' E 139°41'0 0.0
2014-Sep-12 19:32N 35°26' E 139°41'0 0.0
2014-Sep-12 18:32N 35°26' E 139°41'0 0.0
2014-Sep-12 17:32N 35°26' E 139°41'0 0.0
2014-Sep-12 16:32N 35°26' E 139°41'0 0.0
2014-Sep-12 15:32N 35°26' E 139°41'0 0.0
2014-Sep-12 14:32N 35°26' E 139°41'0 0.0
2014-Sep-12 13:32N 35°26' E 139°41'0 0.0
2014-Sep-12 12:32N 35°26' E 139°41'0 0.0
2014-Sep-12 11:33N 35°26' E 139°41'0 0.1
2014-Sep-12 10:33N 35°26' E 139°41'8 7.9
2014-Sep-12 09:33N 35°18' E 139°44'1111.4
2014-Sep-12 08:33N 35°07' E 139°45'434 9.0
2014-Sep-10 08:33N 32°06' E 131°51'  

Dump ship's entire track history